Time;durP1;ratioP1;P1;durP2;ratioP2;P2;SDS_P1;SDS_P2;PMS_P1;PMS_P2;Temp;Humidity;BMP_temperature;BMP_pressure;BME280_temperature;BME280_humidity;BME280_pressure;Samples;Min_cycle;Max_cycle;Signal;HPM_P1;HPM_P2
2020/12/12 00:05:03;;;;;;;7.72;3.22;;;4.80;99.90;;;;;;10482564;28;20047;-50
2020/12/12 00:10:26;;;;;;;16.20;4.88;;;4.80;99.90;;;;;;10480734;28;20041;-50
2020/12/12 00:15:47;;;;;;;6.88;3.42;;;4.80;99.90;;;;;;10485500;28;20048;-50
2020/12/12 00:21:08;;;;;;;9.00;4.05;;;4.90;99.90;;;;;;10483582;28;20041;-50
2020/12/12 00:26:29;;;;;;;8.27;4.25;;;4.90;99.90;;;;;;10490442;28;20047;-50
2020/12/12 00:31:55;;;;;;;7.03;2.78;;;5.00;99.90;;;;;;10486306;28;20041;-50
2020/12/12 00:37:18;;;;;;;8.77;4.18;;;5.00;99.90;;;;;;10496655;28;20033;-50
2020/12/12 00:42:39;;;;;;;10.55;3.03;;;5.00;99.90;;;;;;10481752;28;20028;-50
2020/12/12 00:48:00;;;;;;;8.15;3.35;;;4.90;99.90;;;;;;10481725;28;20093;-50
2020/12/12 00:53:21;;;;;;;7.32;2.97;;;5.00;99.90;;;;;;10492763;28;20032;-50
2020/12/12 00:58:43;;;;;;;15.02;3.67;;;5.00;99.90;;;;;;10488534;28;20041;-50
2020/12/12 01:04:04;;;;;;;11.23;4.20;;;4.90;99.90;;;;;;10485157;28;20715;-50
2020/12/12 01:09:25;;;;;;;9.90;4.10;;;4.90;99.90;;;;;;10489639;28;20029;-50
2020/12/12 01:14:46;;;;;;;7.60;2.35;;;4.90;99.90;;;;;;10491274;28;20070;-50
2020/12/12 01:20:07;;;;;;;8.38;3.00;;;5.00;99.90;;;;;;10488231;28;20028;-50
2020/12/12 01:25:28;;;;;;;11.13;4.15;;;5.10;99.90;;;;;;10485560;28;20072;-50
2020/12/12 01:30:52;;;;;;;8.00;3.55;;;5.10;99.90;;;;;;10484491;28;20064;-50
2020/12/12 01:36:13;;;;;;;11.85;3.72;;;5.10;99.90;;;;;;10481299;28;20079;-50
2020/12/12 01:41:34;;;;;;;9.13;3.35;;;5.00;99.90;;;;;;10475453;28;20669;-50
2020/12/12 01:46:58;;;;;;;8.93;4.10;;;5.10;99.90;;;;;;10485056;28;20110;-50
2020/12/12 01:52:21;;;;;;;10.52;3.25;;;5.00;99.90;;;;;;10487130;28;20043;-50
2020/12/12 01:57:46;;;;;;;9.90;3.95;;;5.00;99.90;;;;;;10486298;28;20039;-50
2020/12/12 02:03:09;;;;;;;14.30;3.33;;;5.00;99.90;;;;;;10481702;28;20036;-50
2020/12/12 02:08:31;;;;;;;8.45;3.03;;;5.10;99.90;;;;;;10483116;28;20049;-50
2020/12/12 02:13:56;;;;;;;6.55;2.88;;;5.20;99.90;;;;;;10477487;28;20048;-50
2020/12/12 02:19:16;;;;;;;6.43;2.63;;;5.20;99.90;;;;;;10485568;28;20046;-50
2020/12/12 02:24:37;;;;;;;11.35;3.80;;;5.10;99.90;;;;;;10480510;28;20085;-50
2020/12/12 02:29:58;;;;;;;9.95;3.90;;;5.10;99.90;;;;;;10488091;28;20618;-50
2020/12/12 02:35:19;;;;;;;10.00;3.60;;;5.20;99.90;;;;;;10487988;28;20044;-50
2020/12/12 02:40:40;;;;;;;10.73;4.15;;;5.20;99.90;;;;;;10482525;28;20043;-50
2020/12/12 02:46:01;;;;;;;8.07;2.47;;;5.20;99.90;;;;;;10482044;28;20033;-50
2020/12/12 02:51:22;;;;;;;11.93;4.97;;;5.20;99.90;;;;;;10485543;28;20027;-50
2020/12/12 02:56:43;;;;;;;11.23;4.20;;;5.20;99.90;;;;;;10478729;28;20045;-50
2020/12/12 03:02:04;;;;;;;14.93;3.47;;;5.30;99.90;;;;;;10485536;28;20036;-50
2020/12/12 03:07:25;;;;;;;9.38;3.10;;;5.30;99.90;;;;;;10490335;28;20032;-50
2020/12/12 03:12:46;;;;;;;10.73;3.17;;;5.20;99.90;;;;;;10489107;28;20028;-50
2020/12/12 03:18:07;;;;;;;10.27;3.25;;;5.20;99.90;;;;;;10481990;28;20036;-50
2020/12/12 03:23:28;;;;;;;9.60;3.75;;;5.20;99.90;;;;;;10482145;28;20121;-50
2020/12/12 03:28:49;;;;;;;9.68;2.20;;;5.30;99.90;;;;;;10482549;28;20102;-50
2020/12/12 03:34:10;;;;;;;11.40;3.30;;;5.30;99.90;;;;;;10481455;28;20663;-50
2020/12/12 03:39:31;;;;;;;7.43;3.15;;;5.30;99.90;;;;;;10484511;28;20040;-50
2020/12/12 03:44:52;;;;;;;7.95;2.10;;;5.30;99.90;;;;;;10482681;28;20048;-50
2020/12/12 03:50:14;;;;;;;6.50;2.50;;;5.30;99.90;;;;;;10481965;28;20446;-50
2020/12/12 03:55:35;;;;;;;9.50;3.33;;;5.30;99.90;;;;;;10482085;28;20044;-50
2020/12/12 04:00:56;;;;;;;10.43;2.90;;;5.30;99.90;;;;;;10493038;28;20391;-50
2020/12/12 04:06:17;;;;;;;9.55;3.22;;;5.40;99.90;;;;;;10487647;28;20469;-51
2020/12/12 04:11:38;;;;;;;8.18;2.92;;;5.40;99.90;;;;;;10489620;28;20040;-50
2020/12/12 04:16:59;;;;;;;8.98;3.25;;;5.40;99.90;;;;;;10485478;28;20036;-50
2020/12/12 04:22:19;;;;;;;11.23;3.15;;;5.40;99.90;;;;;;10489737;28;20045;-51
2020/12/12 04:27:42;;;;;;;6.70;2.75;;;5.40;99.90;;;;;;10487012;28;20055;-51
2020/12/12 04:33:03;;;;;;;8.40;3.13;;;5.40;99.90;;;;;;10490449;28;20122;-50
2020/12/12 04:38:24;;;;;;;6.90;3.00;;;5.40;99.90;;;;;;10487643;28;20156;-50
2020/12/12 04:43:45;;;;;;;9.52;2.85;;;5.40;99.90;;;;;;10493542;28;20584;-51
2020/12/12 04:49:06;;;;;;;6.10;3.10;;;5.40;99.90;;;;;;10478888;28;20047;-50
2020/12/12 04:54:34;;;;;;;8.68;3.58;;;5.40;99.90;;;;;;10483028;28;20117;-51
2020/12/12 04:59:56;;;;;;;5.47;2.28;;;5.40;99.90;;;;;;10481354;28;20029;-51
2020/12/12 05:05:17;;;;;;;8.82;3.22;;;5.50;99.90;;;;;;10484135;28;20555;-51
2020/12/12 05:10:39;;;;;;;12.73;3.30;;;5.40;99.90;;;;;;10488992;28;20040;-51
2020/12/12 05:16:00;;;;;;;6.50;2.90;;;5.50;99.90;;;;;;10488917;28;20043;-52
2020/12/12 05:21:21;;;;;;;10.20;2.83;;;5.50;99.90;;;;;;10490725;28;20055;-50
2020/12/12 05:26:43;;;;;;;6.70;2.90;;;5.50;99.90;;;;;;10486712;28;20044;-51
2020/12/12 05:32:05;;;;;;;7.07;3.40;;;5.50;99.90;;;;;;10494308;28;20894;-50
2020/12/12 05:37:26;;;;;;;8.45;3.03;;;5.50;99.90;;;;;;10486363;28;20039;-51
2020/12/12 05:42:48;;;;;;;7.97;3.22;;;5.50;99.90;;;;;;10491722;28;20032;-51
2020/12/12 05:48:10;;;;;;;10.38;3.78;;;5.50;99.90;;;;;;10476887;28;20595;-51
2020/12/12 05:53:31;;;;;;;7.35;3.30;;;5.50;99.90;;;;;;10489667;28;20036;-51
2020/12/12 05:58:54;;;;;;;10.30;3.28;;;5.50;99.90;;;;;;10480874;28;20048;-51
2020/12/12 06:04:18;;;;;;;9.23;3.17;;;5.50;99.90;;;;;;10470191;28;20032;-50
2020/12/12 06:09:46;;;;;;;7.47;3.15;;;5.50;99.90;;;;;;10464748;28;20036;-51
2020/12/12 06:15:17;;;;;;;8.18;3.00;;;5.50;99.90;;;;;;10484409;28;20028;-51
2020/12/12 06:20:39;;;;;;;10.70;3.38;;;5.60;99.90;;;;;;10485783;28;20379;-51
2020/12/12 06:26:00;;;;;;;9.35;4.35;;;5.50;99.90;;;;;;10459547;28;20075;-51
2020/12/12 06:31:21;;;;;;;6.50;2.47;;;5.60;99.90;;;;;;10431209;28;20066;-50
2020/12/12 06:36:47;;;;;;;7.95;3.55;;;5.60;99.90;;;;;;10440278;28;20048;-51
2020/12/12 06:42:46;;;;;;;12.52;2.65;;;5.60;99.90;;;;;;10442513;28;20033;-51
2020/12/12 06:48:22;;;;;;;9.20;3.80;;;5.70;99.90;;;;;;10444180;28;20043;-51
2020/12/12 06:53:43;;;;;;;11.23;3.70;;;5.70;99.90;;;;;;10448735;28;20706;-51
2020/12/12 06:59:23;;;;;;;9.98;2.75;;;5.60;99.90;;;;;;10450850;28;20040;-51
2020/12/12 07:04:47;;;;;;;8.52;3.85;;;5.60;99.90;;;;;;10442176;28;20150;-51
2020/12/12 07:10:09;;;;;;;10.52;4.10;;;5.70;99.90;;;;;;10434252;28;20582;-50
2020/12/12 07:15:37;;;;;;;14.05;4.95;;;5.70;99.90;;;;;;10413868;28;20033;-51
2020/12/12 07:21:00;;;;;;;16.17;4.20;;;5.70;99.90;;;;;;10439283;28;20052;-51
2020/12/12 07:26:21;;;;;;;9.93;2.55;;;5.70;99.90;;;;;;10448374;28;20952;-50
2020/12/12 07:31:44;;;;;;;9.05;2.53;;;5.70;99.90;;;;;;10486328;28;20439;-50
2020/12/12 07:37:07;;;;;;;10.32;4.15;;;5.70;99.90;;;;;;10489259;28;20059;-50
2020/12/12 07:42:33;;;;;;;10.20;3.63;;;5.70;99.90;;;;;;10477205;28;20047;-50
2020/12/12 07:48:02;;;;;;;9.68;3.63;;;5.70;99.90;;;;;;10478080;28;20047;-50
2020/12/12 07:53:23;;;;;;;22.95;3.60;;;5.80;99.90;;;;;;10487852;28;20392;-50
2020/12/12 07:59:01;;;;;;;7.95;3.38;;;5.80;99.90;;;;;;10489305;28;20051;-52
2020/12/12 08:04:23;;;;;;;12.43;5.22;;;5.80;99.90;;;;;;10480373;28;20040;-52
2020/12/12 08:09:51;;;;;;;10.93;4.05;;;5.80;99.90;;;;;;10467944;28;20041;-52
2020/12/12 08:15:20;;;;;;;14.13;4.20;;;5.90;99.90;;;;;;10479981;28;20044;-52
2020/12/12 08:20:41;;;;;;;12.63;3.17;;;5.90;99.90;;;;;;10497700;28;20036;-52
2020/12/12 08:26:03;;;;;;;10.30;3.63;;;6.00;99.90;;;;;;10493010;28;21189;-52
2020/12/12 08:31:24;;;;;;;15.25;4.95;;;6.00;99.90;;;;;;10494126;28;20458;-52
2020/12/12 08:36:46;;;;;;;15.43;7.40;;;6.00;99.90;;;;;;10479563;28;20044;-52
2020/12/12 08:42:07;;;;;;;11.43;4.38;;;5.90;99.90;;;;;;10476581;28;20364;-52
2020/12/12 08:47:28;;;;;;;13.13;6.22;;;6.00;99.90;;;;;;10461422;28;20043;-52
2020/12/12 08:52:49;;;;;;;14.52;3.63;;;6.00;99.90;;;;;;10480034;28;20574;-52
2020/12/12 08:58:09;;;;;;;12.30;4.03;;;6.00;99.90;;;;;;10500524;28;20060;-52
2020/12/12 09:03:30;;;;;;;16.88;5.40;;;6.10;99.90;;;;;;10477397;28;20044;-52
2020/12/12 09:09:15;;;;;;;13.38;3.78;;;6.20;99.90;;;;;;10462870;28;20044;-52
2020/12/12 09:14:38;;;;;;;14.88;3.97;;;6.20;99.90;;;;;;10497128;28;20519;-52
2020/12/12 09:19:59;;;;;;;8.75;5.25;;;6.30;99.90;;;;;;10492464;28;20032;-52
2020/12/12 09:25:20;;;;;;;17.65;3.47;;;6.30;99.90;;;;;;10465728;28;20048;-53
2020/12/12 09:30:41;;;;;;;13.27;4.88;;;6.30;99.90;;;;;;10487001;28;20040;-54
2020/12/12 09:36:05;;;;;;;16.08;3.97;;;6.40;99.90;;;;;;10460297;28;20044;-54
2020/12/12 09:41:26;;;;;;;9.55;4.82;;;6.50;99.90;;;;;;10497430;28;20028;-54
2020/12/12 09:46:47;;;;;;;14.05;5.20;;;6.60;99.90;;;;;;10491634;28;20102;-54
2020/12/12 09:52:08;;;;;;;20.85;5.68;;;6.60;99.90;;;;;;10506606;28;20032;-54
2020/12/12 09:57:29;;;;;;;12.75;3.88;;;6.70;99.90;;;;;;10484423;28;20041;-54
2020/12/12 10:02:50;;;;;;;18.15;5.22;;;6.80;99.90;;;;;;10471872;28;20036;-51
2020/12/12 10:08:11;;;;;;;17.75;6.07;;;6.90;99.90;;;;;;10454832;28;20045;-54
2020/12/12 10:13:32;;;;;;;22.40;6.43;;;7.00;99.90;;;;;;10471204;28;20042;-54
2020/12/12 10:18:52;;;;;;;18.08;5.43;;;7.10;99.90;;;;;;10500132;28;20081;-54
2020/12/12 10:24:13;;;;;;;14.57;5.18;;;7.10;99.90;;;;;;10507884;28;20085;-54
2020/12/12 10:29:34;;;;;;;15.48;4.57;;;7.10;99.90;;;;;;10499856;28;20041;-54
2020/12/12 10:34:55;;;;;;;19.42;6.35;;;7.20;99.90;;;;;;10491868;28;20438;-54
2020/12/12 10:40:19;;;;;;;16.13;6.15;;;7.30;99.90;;;;;;10481476;28;20747;-52
2020/12/12 10:45:42;;;;;;;12.88;3.92;;;7.30;99.90;;;;;;10482980;28;20504;-53
2020/12/12 10:51:03;;;;;;;21.05;6.78;;;7.40;99.90;;;;;;10499580;28;20043;-53
2020/12/12 10:56:23;;;;;;;16.20;6.88;;;7.50;99.90;;;;;;10494233;28;20485;-51
2020/12/12 11:01:44;;;;;;;13.27;5.03;;;7.60;99.90;;;;;;10490317;28;20515;-51
2020/12/12 11:07:06;;;;;;;17.92;6.15;;;7.60;99.90;;;;;;10498919;28;20044;-51
2020/12/12 11:12:27;;;;;;;20.85;6.95;;;7.70;99.90;;;;;;10503760;28;20544;-51
2020/12/12 11:17:48;;;;;;;18.52;6.55;;;7.80;99.90;;;;;;10481211;28;20579;-51
2020/12/12 11:23:09;;;;;;;19.20;6.47;;;7.90;99.90;;;;;;10497830;28;20138;-51
2020/12/12 11:28:30;;;;;;;22.15;6.55;;;7.90;99.90;;;;;;10462811;28;20056;-51
2020/12/12 11:34:57;;;;;;;25.10;5.90;;;7.90;99.90;;;;;;10489407;28;20110;-51
2020/12/12 11:50:36;;;;;;;19.77;4.80;;;8.20;99.90;;;;;;10459155;28;20120;-51
2020/12/12 11:55:57;;;;;;;27.08;5.30;;;8.30;99.90;;;;;;10453231;28;20356;-51
2020/12/12 12:01:23;;;;;;;24.50;5.05;;;8.30;99.90;;;;;;10462029;28;20040;-51
2020/12/12 12:06:44;;;;;;;21.83;5.15;;;8.40;99.90;;;;;;10439609;28;20131;-51
2020/12/12 12:12:05;;;;;;;32.75;8.60;;;8.50;99.90;;;;;;10470875;28;20037;-51
2020/12/12 12:17:26;;;;;;;29.42;6.65;;;8.60;99.90;;;;;;10460332;28;20412;-51
2020/12/12 12:22:47;;;;;;;20.02;5.85;;;8.60;99.90;;;;;;10497730;28;20086;-52
2020/12/12 12:28:08;;;;;;;29.05;6.38;;;8.60;99.90;;;;;;10495011;28;20487;-52
2020/12/12 12:33:29;;;;;;;23.90;7.18;;;8.70;99.90;;;;;;10503557;28;20134;-52
2020/12/12 12:38:51;;;;;;;25.40;6.53;;;8.70;99.90;;;;;;10510651;28;20036;-52
2020/12/12 12:44:12;;;;;;;28.15;7.63;;;8.70;99.90;;;;;;10488762;28;20039;-52
2020/12/12 12:49:33;;;;;;;33.10;5.85;;;8.70;99.90;;;;;;10507589;28;20888;-51
2020/12/12 12:54:54;;;;;;;18.80;7.18;;;8.70;99.90;;;;;;10494673;28;20035;-52
2020/12/12 13:00:15;;;;;;;31.27;7.65;;;8.80;99.90;;;;;;10505882;28;20048;-51
2020/12/12 13:05:39;;;;;;;30.73;6.75;;;8.80;99.90;;;;;;10478238;28;20059;-52
2020/12/12 13:11:00;;;;;;;26.85;6.25;;;8.90;99.90;;;;;;10492365;28;20468;-52
2020/12/12 13:16:25;;;;;;;22.70;6.57;;;8.90;99.90;;;;;;10482397;28;20033;-52
2020/12/12 13:21:54;;;;;;;28.05;6.35;;;8.90;99.90;;;;;;10479591;28;20067;-51
2020/12/12 13:27:15;;;;;;;20.23;5.97;;;8.90;99.90;;;;;;10480409;28;20672;-52
2020/12/12 13:32:35;;;;;;;21.52;7.40;;;9.00;99.90;;;;;;10489680;28;20479;-52
2020/12/12 13:37:56;;;;;;;26.02;7.15;;;9.00;99.90;;;;;;10493524;28;20336;-52
2020/12/12 13:43:17;;;;;;;19.67;6.15;;;9.00;99.90;;;;;;10487425;28;20040;-52
2020/12/12 13:48:38;;;;;;;23.52;7.75;;;9.00;99.90;;;;;;10499194;28;20048;-52
2020/12/12 13:53:59;;;;;;;22.60;6.20;;;9.00;99.90;;;;;;10476590;28;20283;-51
2020/12/12 13:59:20;;;;;;;19.90;6.30;;;9.00;99.90;;;;;;10459497;28;20043;-51
2020/12/12 14:04:41;;;;;;;19.38;4.25;;;9.00;99.90;;;;;;10505321;28;20044;-52
2020/12/12 14:32:34;;;;;;;11.55;4.22;;;8.90;99.90;;;;;;10477929;28;20028;-52
2020/12/12 14:37:55;;;;;;;17.52;5.53;;;9.00;99.90;;;;;;10490852;28;20207;-52
2020/12/12 14:43:17;;;;;;;14.20;5.00;;;9.00;99.90;;;;;;10487775;28;20094;-52
2020/12/12 14:48:39;;;;;;;13.02;5.05;;;9.00;99.90;;;;;;10488389;28;20040;-50
2020/12/12 14:54:00;;;;;;;15.00;5.13;;;9.00;99.90;;;;;;10483655;28;20065;-52
2020/12/12 14:59:21;;;;;;;14.25;5.07;;;9.00;99.90;;;;;;10495887;28;20110;-52
2020/12/12 15:04:42;;;;;;;17.73;4.55;;;9.00;99.90;;;;;;10503854;28;20437;-52
2020/12/12 15:10:05;;;;;;;17.23;5.65;;;9.00;99.90;;;;;;10490297;28;20024;-52
2020/12/12 15:15:26;;;;;;;14.88;5.38;;;9.00;99.90;;;;;;10495163;28;20488;-52
2020/12/12 15:20:47;;;;;;;13.43;5.25;;;9.00;99.90;;;;;;10474561;28;20035;-52
2020/12/12 15:26:08;;;;;;;7.13;3.55;;;9.00;99.90;;;;;;10497243;28;20047;-52
2020/12/12 15:31:32;;;;;;;16.15;4.97;;;9.00;99.90;;;;;;10489049;28;20035;-52
2020/12/12 15:36:53;;;;;;;16.50;5.35;;;9.00;99.90;;;;;;10499659;28;20812;-52
2020/12/12 15:42:14;;;;;;;12.05;4.57;;;9.00;99.90;;;;;;10490383;28;20051;-52
2020/12/12 15:47:37;;;;;;;16.77;3.75;;;9.00;99.90;;;;;;10506751;28;20066;-52
2020/12/12 15:52:59;;;;;;;28.50;5.88;;;9.10;99.90;;;;;;10514141;28;20028;-52
2020/12/12 15:58:24;;;;;;;14.85;4.32;;;9.10;99.90;;;;;;10506973;28;20041;-52
2020/12/12 16:03:45;;;;;;;11.85;4.90;;;9.00;99.90;;;;;;10510979;28;20090;-52
2020/12/12 16:09:06;;;;;;;18.02;4.03;;;9.00;99.90;;;;;;10503910;28;20051;-52
2020/12/12 16:14:28;;;;;;;17.00;4.07;;;9.10;99.90;;;;;;10520123;28;20046;-52
2020/12/12 16:19:48;;;;;;;8.75;3.72;;;9.20;99.90;;;;;;10518647;28;20067;-52
2020/12/12 16:25:09;;;;;;;9.38;3.10;;;9.20;99.90;;;;;;10520273;28;20040;-52
2020/12/12 16:30:31;;;;;;;10.10;3.85;;;9.20;99.90;;;;;;10520287;28;20021;-52
2020/12/12 16:35:52;;;;;;;10.93;4.78;;;9.10;99.90;;;;;;10521171;28;20479;-52
2020/12/12 16:41:13;;;;;;;12.98;4.78;;;9.00;99.90;;;;;;10525699;28;20704;-52
2020/12/12 16:46:38;;;;;;;10.35;3.60;;;8.90;99.90;;;;;;10519033;28;20101;-52
2020/12/12 16:52:03;;;;;;;9.95;4.85;;;8.90;99.90;;;;;;10517135;28;20032;-52
2020/12/12 16:57:24;;;;;;;16.33;4.40;;;8.80;99.90;;;;;;10508764;28;20043;-52
2020/12/12 17:02:45;;;;;;;17.02;4.15;;;8.80;99.90;;;;;;10513649;28;20056;-52
2020/12/12 17:08:06;;;;;;;16.70;5.10;;;8.60;99.90;;;;;;10511301;28;20070;-52
2020/12/12 17:13:27;;;;;;;29.75;6.32;;;8.60;99.90;;;;;;10501910;28;20036;-52
2020/12/12 17:18:48;;;;;;;25.45;5.75;;;8.40;99.90;;;;;;10511475;28;20066;-52
2020/12/12 17:24:10;;;;;;;15.40;4.18;;;8.40;99.90;;;;;;10510910;28;20091;-51
2020/12/12 17:29:31;;;;;;;20.55;4.88;;;8.30;99.90;;;;;;10514535;28;20036;-52
2020/12/12 17:34:52;;;;;;;14.52;5.13;;;8.30;99.90;;;;;;10508559;28;20150;-52
2020/12/12 17:40:15;;;;;;;15.15;5.28;;;8.20;99.90;;;;;;10514245;28;20583;-52
2020/12/12 17:45:36;;;;;;;18.23;4.07;;;8.20;99.90;;;;;;10513347;28;20071;-52
2020/12/12 17:50:57;;;;;;;20.65;6.25;;;8.20;99.90;;;;;;10510069;28;20059;-52
2020/12/12 17:56:22;;;;;;;18.45;5.13;;;8.10;99.90;;;;;;10511196;28;20028;-52
2020/12/12 18:01:43;;;;;;;22.02;5.15;;;8.00;99.90;;;;;;10510396;28;20037;-52
2020/12/12 18:07:04;;;;;;;12.00;5.40;;;8.00;99.90;;;;;;10508985;28;20065;-52
2020/12/12 18:12:25;;;;;;;11.80;4.00;;;7.90;99.90;;;;;;10516138;28;20032;-52
2020/12/12 18:17:49;;;;;;;13.23;5.80;;;7.90;99.90;;;;;;10513931;28;20122;-52
2020/12/12 18:23:10;;;;;;;14.40;4.68;;;7.90;99.90;;;;;;10510641;28;20129;-52
2020/12/12 18:28:31;;;;;;;25.95;8.43;;;7.90;99.90;;;;;;10496344;28;20065;-52
2020/12/12 18:33:52;;;;;;;12.75;4.95;;;7.90;99.90;;;;;;10511393;28;20047;-52
2020/12/12 18:39:14;;;;;;;12.00;4.35;;;7.80;99.90;;;;;;10493373;28;20636;-52
2020/12/12 18:44:35;;;;;;;17.10;4.57;;;7.80;99.90;;;;;;10514112;28;20099;-52
2020/12/12 18:49:57;;;;;;;21.48;6.32;;;7.80;99.90;;;;;;10513923;28;20059;-52
2020/12/12 18:55:18;;;;;;;11.48;5.30;;;7.80;99.90;;;;;;10502075;28;20464;-52
2020/12/12 19:00:39;;;;;;;15.85;4.22;;;7.80;99.90;;;;;;10509319;28;20044;-52
2020/12/12 19:06:00;;;;;;;18.38;6.28;;;7.80;99.90;;;;;;10508951;28;20036;-52
2020/12/12 19:11:21;;;;;;;10.70;4.63;;;7.80;99.90;;;;;;10495779;28;20469;-52
2020/12/12 19:16:42;;;;;;;13.88;3.08;;;7.80;99.90;;;;;;10506094;28;20036;-52
2020/12/12 19:22:08;;;;;;;12.35;4.47;;;7.80;99.90;;;;;;10508723;28;20472;-52
2020/12/12 19:27:29;;;;;;;6.95;3.78;;;7.70;99.90;;;;;;10511150;28;20691;-52
2020/12/12 19:32:50;;;;;;;18.50;4.90;;;7.70;99.90;;;;;;10506752;28;20044;-52
2020/12/12 19:38:11;;;;;;;9.93;3.47;;;7.70;99.90;;;;;;10522055;28;20035;-52
2020/12/12 19:43:32;;;;;;;14.15;5.15;;;7.70;99.90;;;;;;10512131;28;20074;-52
2020/12/12 19:48:54;;;;;;;14.27;3.80;;;7.70;99.90;;;;;;10520871;28;20134;-52
2020/12/12 19:54:16;;;;;;;10.95;2.78;;;7.70;99.90;;;;;;10522604;28;20024;-52
2020/12/12 19:59:39;;;;;;;13.02;3.80;;;7.70;99.90;;;;;;10518897;28;20078;-52
2020/12/12 20:05:00;;;;;;;9.93;3.47;;;7.70;99.90;;;;;;10525593;28;20097;-52
2020/12/12 20:10:21;;;;;;;19.13;5.85;;;7.60;99.90;;;;;;10513428;28;20062;-52
2020/12/12 20:15:42;;;;;;;11.68;3.90;;;7.60;99.90;;;;;;10517042;28;20086;-52
2020/12/12 20:21:03;;;;;;;12.98;3.88;;;7.50;99.90;;;;;;10506805;28;20802;-52
2020/12/12 20:26:24;;;;;;;9.90;3.97;;;7.40;99.90;;;;;;10514419;28;20071;-52
2020/12/12 20:31:45;;;;;;;14.85;4.65;;;7.30;99.90;;;;;;10524740;28;20110;-51
2020/12/12 20:37:07;;;;;;;13.35;3.15;;;7.20;99.90;;;;;;10517519;28;20532;-52
2020/12/12 20:42:28;;;;;;;11.02;3.80;;;7.10;99.90;;;;;;10521109;28;20074;-52
2020/12/12 20:47:49;;;;;;;14.10;3.20;;;7.00;99.90;;;;;;10500597;28;20580;-53
2020/12/12 20:53:13;;;;;;;9.40;3.97;;;6.90;99.90;;;;;;10514853;28;20063;-52
2020/12/12 20:58:35;;;;;;;9.95;3.53;;;6.70;99.90;;;;;;10504580;28;20060;-53
2020/12/12 21:03:56;;;;;;;9.77;3.70;;;6.60;99.90;;;;;;10510024;28;20505;-54
2020/12/12 21:09:17;;;;;;;7.38;2.78;;;6.50;99.90;;;;;;10510290;28;20032;-54
2020/12/12 21:14:38;;;;;;;11.07;3.08;;;6.50;99.90;;;;;;10502691;28;20122;-54
2020/12/12 21:19:59;;;;;;;10.95;4.13;;;6.40;99.90;;;;;;10464972;28;20040;-54
2020/12/12 21:25:21;;;;;;;13.07;4.95;;;6.50;99.90;;;;;;10489160;28;20073;-54
2020/12/12 21:30:44;;;;;;;17.83;6.35;;;6.50;99.90;;;;;;10493434;28;20519;-54
2020/12/12 21:36:05;;;;;;;15.70;3.92;;;6.40;99.90;;;;;;10495109;28;20036;-54
2020/12/12 21:41:26;;;;;;;9.60;4.07;;;6.50;99.90;;;;;;10490797;28;20476;-54
2020/12/12 21:46:47;;;;;;;16.83;4.18;;;6.50;99.90;;;;;;10491095;28;20469;-54
2020/12/12 21:52:08;;;;;;;10.55;3.58;;;6.60;99.90;;;;;;10495604;28;20041;-54
2020/12/12 21:57:30;;;;;;;10.65;4.05;;;6.60;99.90;;;;;;10480109;28;20047;-54
2020/12/12 22:02:51;;;;;;;10.50;3.38;;;6.60;99.90;;;;;;10489105;28;20032;-54
2020/12/12 22:08:13;;;;;;;8.07;3.13;;;6.60;99.90;;;;;;10482384;28;20040;-54
2020/12/12 22:13:34;;;;;;;7.63;3.03;;;6.60;99.90;;;;;;10488766;28;20091;-54
2020/12/12 22:18:55;;;;;;;13.68;3.83;;;6.60;99.90;;;;;;10485606;28;20465;-54
2020/12/12 22:24:18;;;;;;;10.75;3.72;;;6.60;99.90;;;;;;10499316;28;21531;-54
2020/12/12 22:29:39;;;;;;;11.13;4.78;;;6.50;99.90;;;;;;10490104;28;20479;-54
2020/12/12 22:35:00;;;;;;;8.98;4.53;;;6.50;99.90;;;;;;10490421;28;20039;-54
2020/12/12 22:40:22;;;;;;;11.07;3.92;;;6.60;99.90;;;;;;10474933;28;20036;-54
2020/12/12 22:45:43;;;;;;;10.13;4.18;;;6.50;99.90;;;;;;10464124;28;20443;-54
2020/12/12 22:51:04;;;;;;;11.73;4.15;;;6.60;99.90;;;;;;10464281;28;20119;-54
2020/12/12 22:56:25;;;;;;;16.50;4.32;;;6.70;99.90;;;;;;10474731;28;20151;-54
2020/12/12 23:01:46;;;;;;;16.42;3.92;;;6.70;99.90;;;;;;10477224;28;20166;-54
2020/12/12 23:07:07;;;;;;;15.10;5.32;;;6.80;99.90;;;;;;10453575;28;20101;-54
2020/12/12 23:12:28;;;;;;;12.38;5.30;;;6.80;99.90;;;;;;10490818;28;20040;-54
2020/12/12 23:17:52;;;;;;;14.07;4.07;;;6.90;99.90;;;;;;10487056;28;20036;-54
2020/12/12 23:23:12;;;;;;;10.30;3.85;;;6.90;99.90;;;;;;10482994;28;20024;-54
2020/12/12 23:28:33;;;;;;;14.27;4.40;;;6.90;99.90;;;;;;10484317;28;20049;-54
2020/12/12 23:33:54;;;;;;;13.63;4.75;;;6.80;99.90;;;;;;10488141;28;20126;-54
2020/12/12 23:39:15;;;;;;;12.07;4.22;;;6.90;99.90;;;;;;10488362;28;20036;-54
2020/12/12 23:44:36;;;;;;;13.32;3.50;;;6.90;99.90;;;;;;10484441;28;20147;-54
2020/12/12 23:49:57;;;;;;;12.77;5.75;;;6.90;99.90;;;;;;10489279;28;20032;-54
2020/12/12 23:55:18;;;;;;;13.27;5.28;;;6.90;99.90;;;;;;10486553;28;20043;-54
